Time;durP1;ratioP1;P1;durP2;ratioP2;P2;SDS_P1;SDS_P2;PMS_P1;PMS_P2;Temp;Humidity;BMP_temperature;BMP_pressure;BME280_temperature;BME280_humidity;BME280_pressure;Samples;Min_cycle;Max_cycle;Signal;HPM_P1;HPM_P2
2022/02/04 00:06:28;;;;;;;10.73;6.20;;;9.10;99.90;;;;;;5047386;28;20450;-80
2022/02/04 00:09:19;;;;;;;7.27;6.13;;;9.10;99.90;;;;;;5048562;28;20483;-81
2022/02/04 00:23:10;;;;;;;8.10;5.70;;;9.10;99.90;;;;;;5043914;28;20541;-80
2022/02/04 00:25:50;;;;;;;11.80;6.53;;;9.10;99.90;;;;;;5046445;28;20522;-80
2022/02/04 00:28:27;;;;;;;11.20;6.07;;;9.10;99.90;;;;;;5050487;28;20559;-80
2022/02/04 00:31:10;;;;;;;9.00;5.33;;;9.10;99.90;;;;;;5049218;28;20537;-81
2022/02/04 00:33:41;;;;;;;7.40;4.80;;;9.10;58.90;;;;;;5049058;28;20458;-80
2022/02/04 00:36:16;;;;;;;8.83;6.00;;;9.10;99.10;;;;;;5043908;28;20481;-81
2022/02/04 00:38:48;;;;;;;7.53;5.30;;;9.20;47.00;;;;;;5048106;28;20476;-80
2022/02/04 00:41:21;;;;;;;7.53;5.07;;;9.10;33.00;;;;;;5047660;28;20461;-80
2022/02/04 00:43:51;;;;;;;6.30;4.70;;;9.10;43.10;;;;;;5049847;28;20829;-80
2022/02/04 00:46:25;;;;;;;11.97;6.90;;;9.10;5.30;;;;;;5051473;28;20457;-80
2022/02/04 00:49:18;;;;;;;8.67;6.13;;;9.10;1.00;;;;;;5045073;28;20477;-81
2022/02/04 00:51:58;;;;;;;8.10;6.73;;;9.10;1.00;;;;;;5046798;28;20456;-80
2022/02/04 00:54:39;;;;;;;7.77;5.70;;;9.00;1.00;;;;;;5048661;28;20460;-80
2022/02/04 00:57:15;;;;;;;7.60;5.00;;;8.90;1.00;;;;;;5047104;28;21039;-81
2022/02/04 01:27:46;;;;;;;4.70;4.30;;;9.00;1.00;;;;;;5053960;28;20845;-80
2022/02/04 01:30:20;;;;;;;5.20;4.70;;;9.00;1.00;;;;;;5046353;28;20435;-80
2022/02/04 01:32:48;;;;;;;9.77;4.83;;;9.00;1.00;;;;;;5049890;28;20962;-79
2022/02/04 01:35:16;;;;;;;5.90;4.47;;;9.00;1.00;;;;;;5049431;28;20515;-79
2022/02/04 01:37:45;;;;;;;5.80;4.70;;;9.00;1.00;;;;;;5046974;28;20496;-80
2022/02/04 01:40:14;;;;;;;6.87;5.27;;;9.00;1.00;;;;;;5044705;28;21043;-80
2022/02/04 01:42:43;;;;;;;6.07;4.83;;;9.00;1.00;;;;;;5051772;28;20469;-79
2022/02/04 01:45:11;;;;;;;6.20;4.10;;;8.90;1.00;;;;;;5045411;28;20449;-80
2022/02/04 01:50:22;;;;;;;6.87;4.60;;;8.90;1.00;;;;;;5048649;28;20458;-80
2022/02/04 01:52:50;;;;;;;4.03;3.50;;;8.70;1.00;;;;;;5050554;28;20517;-80
2022/02/04 01:55:20;;;;;;;5.77;4.27;;;8.60;1.00;;;;;;5058532;28;21290;-79
2022/02/04 01:57:48;;;;;;;7.33;4.90;;;8.70;1.00;;;;;;5048895;28;21004;-79
2022/02/04 02:00:18;;;;;;;5.20;3.27;;;8.80;1.00;;;;;;5045795;28;20559;-79
2022/02/04 02:02:46;;;;;;;5.43;3.67;;;8.90;1.00;;;;;;5043795;28;21019;-79
2022/02/04 02:05:14;;;;;;;4.67;3.80;;;9.00;1.00;;;;;;5051894;28;20442;-79
2022/02/04 02:07:46;;;;;;;5.83;3.90;;;9.10;1.00;;;;;;5043235;28;20487;-80
2022/02/04 02:10:17;;;;;;;3.43;3.13;;;9.10;1.00;;;;;;5045668;28;20541;-79
2022/02/04 02:12:58;;;;;;;6.40;4.37;;;9.10;1.00;;;;;;5048568;28;20462;-79
2022/02/04 02:15:32;;;;;;;3.47;3.17;;;9.10;1.00;;;;;;5046431;28;20466;-79
2022/02/04 02:43:19;;;;;;;3.87;2.80;;;9.20;1.00;;;;;;5033858;28;20468;-80
2022/02/04 02:48:45;;;;;;;3.30;2.90;;;9.20;1.00;;;;;;5049356;28;20889;-79
2022/02/04 02:51:42;;;;;;;3.83;2.73;;;9.20;1.00;;;;;;5047509;28;20452;-79
2022/02/04 02:54:36;;;;;;;5.23;3.50;;;9.20;1.00;;;;;;5050053;28;20460;-80
2022/02/04 02:57:39;;;;;;;2.73;2.53;;;9.10;1.00;;;;;;5050308;28;20441;-80
2022/02/04 03:00:14;;;;;;;3.40;3.07;;;9.20;1.00;;;;;;5045540;28;20456;-79
2022/02/04 03:02:42;;;;;;;3.73;2.80;;;9.20;1.00;;;;;;5040850;28;20515;-79
2022/02/04 03:05:10;;;;;;;4.20;3.07;;;9.10;1.00;;;;;;5045431;28;20451;-80
2022/02/04 03:07:38;;;;;;;4.73;3.20;;;9.10;1.00;;;;;;5034400;28;20455;-79
2022/02/04 03:10:07;;;;;;;3.73;2.50;;;9.10;1.00;;;;;;5042810;28;20458;-82
2022/02/04 03:12:37;;;;;;;3.40;3.10;;;9.00;1.00;;;;;;5045465;28;20510;-80
2022/02/04 03:15:06;;;;;;;3.63;3.17;;;8.90;1.00;;;;;;5037988;28;20460;-80
2022/02/04 03:17:35;;;;;;;3.23;2.87;;;8.90;1.00;;;;;;5047884;28;20472;-80
2022/02/04 03:20:08;;;;;;;2.97;2.70;;;9.00;1.00;;;;;;5049246;28;20465;-80
2022/02/04 03:22:36;;;;;;;3.20;2.57;;;9.00;1.00;;;;;;5050316;28;20461;-80
2022/02/04 03:25:08;;;;;;;3.10;2.40;;;9.10;1.00;;;;;;5056777;28;20452;-80
2022/02/04 03:27:43;;;;;;;2.80;2.60;;;9.00;1.00;;;;;;5054655;28;20448;-79
2022/02/04 03:30:17;;;;;;;3.43;3.10;;;9.10;1.00;;;;;;5050181;28;20447;-80
2022/02/04 03:32:51;;;;;;;4.20;3.03;;;9.00;1.00;;;;;;5046615;28;20461;-80
2022/02/04 03:35:21;;;;;;;2.90;2.70;;;9.00;1.00;;;;;;5050365;28;20840;-80
2022/02/04 03:37:51;;;;;;;3.40;3.00;;;9.00;1.00;;;;;;5049430;28;20489;-80
2022/02/04 03:40:20;;;;;;;2.73;1.90;;;9.10;1.00;;;;;;5047801;28;20445;-79
2022/02/04 03:42:50;;;;;;;2.90;2.50;;;9.10;1.00;;;;;;5047758;28;20924;-80
2022/02/04 03:45:21;;;;;;;3.37;2.50;;;9.10;1.00;;;;;;5050111;28;21019;-79
2022/02/04 03:47:49;;;;;;;3.63;2.67;;;9.10;1.00;;;;;;5048284;28;20464;-79
2022/02/04 03:50:18;;;;;;;3.20;2.60;;;9.10;1.00;;;;;;5047781;28;20455;-79
2022/02/04 03:52:46;;;;;;;2.80;2.43;;;9.10;1.00;;;;;;5052813;28;20517;-79
2022/02/04 03:55:15;;;;;;;2.90;2.40;;;9.20;1.00;;;;;;5049224;28;20515;-79
2022/02/04 03:57:43;;;;;;;2.40;2.00;;;9.20;1.00;;;;;;5040017;28;20487;-80
2022/02/04 04:00:16;;;;;;;2.70;2.17;;;9.20;1.00;;;;;;5046305;28;20494;-79
2022/02/04 04:02:46;;;;;;;2.90;2.27;;;9.00;1.00;;;;;;5047143;28;20457;-79
2022/02/04 04:05:15;;;;;;;2.67;1.80;;;8.90;1.00;;;;;;5046577;28;20450;-79
2022/02/04 04:07:46;;;;;;;3.00;2.03;;;8.80;1.00;;;;;;5048706;28;20462;-80
2022/02/04 04:10:19;;;;;;;2.50;2.00;;;8.80;1.00;;;;;;5047262;28;20459;-79
2022/02/04 04:12:48;;;;;;;2.20;1.83;;;8.70;1.00;;;;;;5044904;28;20460;-79
2022/02/04 04:15:18;;;;;;;2.60;2.40;;;8.50;1.00;;;;;;5051783;28;20454;-79
2022/02/04 04:17:46;;;;;;;3.17;2.30;;;8.30;1.00;;;;;;5044031;28;20489;-79
2022/02/04 04:20:17;;;;;;;2.60;2.40;;;8.40;1.00;;;;;;5046515;28;20453;-80
2022/02/04 04:22:46;;;;;;;2.53;2.10;;;8.50;1.00;;;;;;5047261;28;20446;-79
2022/02/04 04:25:15;;;;;;;2.00;1.87;;;8.50;1.00;;;;;;5046379;28;20449;-80
2022/02/04 04:27:44;;;;;;;3.43;2.67;;;8.70;1.00;;;;;;5041802;28;20462;-79
2022/02/04 04:30:14;;;;;;;5.00;2.87;;;8.70;1.00;;;;;;5048172;28;21116;-80
2022/02/04 04:32:45;;;;;;;3.00;2.30;;;8.60;1.00;;;;;;5034947;28;21010;-79
2022/02/04 04:35:15;;;;;;;3.57;1.87;;;8.50;1.00;;;;;;5047637;28;20468;-79
2022/02/04 04:37:47;;;;;;;3.20;1.90;;;8.60;1.00;;;;;;5047131;28;20468;-80
2022/02/04 04:40:32;;;;;;;3.83;2.50;;;8.60;1.00;;;;;;5045004;28;20556;-79
2022/02/04 04:43:11;;;;;;;2.80;2.60;;;8.60;1.00;;;;;;5042444;28;20484;-79
2022/02/04 05:30:01;;;;;;;3.07;2.60;;;8.40;1.00;;;;;;5019560;28;21040;-80
2022/02/04 05:32:29;;;;;;;2.67;2.30;;;8.30;1.00;;;;;;5036852;28;20467;-80
2022/02/04 05:34:58;;;;;;;2.70;2.50;;;8.50;1.00;;;;;;5031964;28;20464;-79
2022/02/04 05:37:27;;;;;;;4.33;2.60;;;8.60;1.00;;;;;;5038032;28;20458;-77
2022/02/04 05:39:59;;;;;;;3.13;2.87;;;8.70;1.00;;;;;;5039254;28;20543;-79
2022/02/04 05:42:30;;;;;;;3.20;2.30;;;8.60;1.00;;;;;;5037227;28;20456;-78
2022/02/04 05:45:03;;;;;;;3.57;2.13;;;8.50;1.00;;;;;;5046712;28;20443;-77
2022/02/04 05:47:32;;;;;;;5.23;2.77;;;8.50;1.00;;;;;;5047629;28;20463;-78
2022/02/04 05:50:11;;;;;;;3.20;1.90;;;8.30;1.00;;;;;;5042162;28;20502;-77
2022/02/04 05:52:56;;;;;;;2.60;2.40;;;8.20;1.00;;;;;;5043343;28;20459;-78
2022/02/04 05:55:45;;;;;;;3.23;2.47;;;8.20;1.00;;;;;;5043381;28;20991;-78
2022/02/04 05:58:27;;;;;;;2.17;2.00;;;8.10;1.00;;;;;;5047382;28;20468;-78
2022/02/04 06:01:08;;;;;;;5.80;3.10;;;8.20;1.00;;;;;;5044954;28;20534;-78
2022/02/04 06:03:46;;;;;;;4.23;2.20;;;8.30;1.00;;;;;;5050309;28;20463;-78
2022/02/04 06:06:39;;;;;;;2.97;2.00;;;8.00;1.00;;;;;;5043859;28;20561;-78
2022/02/04 06:12:20;;;;;;;2.53;2.20;;;7.90;1.00;;;;;;5004114;28;20447;-78
2022/02/04 06:14:56;;;;;;;2.67;2.20;;;8.00;69.20;;;;;;5044398;28;20335;-78
2022/02/04 06:22:59;;;;;;;8.00;4.17;;;8.40;1.00;;;;;;5043579;28;20483;-77
2022/02/04 06:25:28;;;;;;;2.70;2.50;;;8.40;1.00;;;;;;5041803;28;21157;-78
2022/02/04 06:27:56;;;;;;;2.40;1.87;;;8.40;1.00;;;;;;5042318;28;20464;-78
2022/02/04 06:30:25;;;;;;;2.30;1.87;;;8.50;1.00;;;;;;5044152;28;20472;-78
2022/02/04 06:32:53;;;;;;;2.50;2.20;;;8.50;1.00;;;;;;5041478;28;20559;-78
2022/02/04 06:35:21;;;;;;;3.05;2.75;;;8.40;1.00;;;;;;5045593;28;20396;-78
2022/02/04 06:37:49;;;;;;;2.50;2.30;;;8.10;86.40;;;;;;5039081;28;20223;-77
2022/02/04 06:40:18;;;;;;;3.80;3.50;;;7.90;99.90;;;;;;5042940;28;20486;-78
2022/02/04 06:42:48;;;;;;;2.87;2.37;;;7.80;99.90;;;;;;5039795;28;20485;-76
2022/02/04 06:45:16;;;;;;;3.83;2.30;;;7.80;99.90;;;;;;5041520;28;20451;-77
2022/02/04 06:47:46;;;;;;;2.93;2.70;;;7.60;1.00;;;;;;5046262;28;20486;-78
2022/02/04 06:50:14;;;;;;;3.75;2.53;;;7.70;1.00;;;;;;5050047;28;20801;-78
2022/02/04 06:52:43;;;;;;;2.50;2.20;;;7.80;99.90;;;;;;5046214;28;20214;-78
2022/02/04 06:55:12;;;;;;;2.53;1.53;;;7.70;1.00;;;;;;5049336;28;20458;-78
2022/02/04 06:57:48;;;;;;;3.70;2.53;;;7.70;1.00;;;;;;5048219;28;20450;-78
2022/02/04 07:00:18;;;;;;;3.63;2.10;;;7.60;1.00;;;;;;5043035;28;20498;-77
2022/02/04 07:02:47;;;;;;;3.07;2.77;;;7.60;54.70;;;;;;5041550;28;20460;-77
2022/02/04 07:05:16;;;;;;;3.33;2.60;;;7.50;27.60;;;;;;5044267;28;20463;-78
2022/02/04 07:07:50;;;;;;;3.10;2.43;;;7.30;1.00;;;;;;5042846;28;20563;-78
2022/02/04 07:10:24;;;;;;;3.17;2.27;;;7.40;99.90;;;;;;5043344;28;20499;-77
2022/02/04 07:13:00;;;;;;;3.13;2.13;;;7.70;22.30;;;;;;5042254;28;20462;-77
2022/02/04 07:20:59;;;;;;;3.03;2.30;;;7.90;99.90;;;;;;5042226;28;20622;-78
2022/02/04 07:23:34;;;;;;;3.73;2.40;;;8.00;99.90;;;;;;5046367;28;20445;-78
2022/02/04 07:26:02;;;;;;;3.97;2.50;;;7.60;1.00;;;;;;5040455;28;20995;-78
2022/02/04 07:28:33;;;;;;;5.13;3.20;;;7.60;1.00;;;;;;5040832;28;20491;-78
2022/02/04 07:31:04;;;;;;;3.60;3.03;;;7.70;1.00;;;;;;5039099;28;20443;-78
2022/02/04 07:33:42;;;;;;;5.17;3.00;;;7.60;1.00;;;;;;5039561;28;20448;-78
2022/02/04 07:41:43;;;;;;;2.77;2.57;;;7.90;99.90;;;;;;5043054;28;20530;-78
2022/02/04 07:44:13;;;;;;;5.83;3.13;;;8.00;99.90;;;;;;5040884;28;21006;-77
2022/02/04 07:46:41;;;;;;;3.67;3.33;;;8.20;99.90;;;;;;5041263;28;21040;-77
2022/02/04 07:49:10;;;;;;;4.00;2.97;;;8.20;99.90;;;;;;5039116;28;20479;-78
2022/02/04 07:51:40;;;;;;;4.10;3.70;;;8.10;99.90;;;;;;5040354;28;20459;-78
2022/02/04 07:54:09;;;;;;;6.00;3.63;;;8.00;99.90;;;;;;5041599;28;21014;-78
2022/02/04 07:56:37;;;;;;;4.33;3.70;;;8.00;1.00;;;;;;5042962;28;20447;-78
2022/02/04 07:59:09;;;;;;;5.43;3.57;;;7.90;5.80;;;;;;5041158;28;20525;-78
2022/02/04 08:01:38;;;;;;;5.87;3.93;;;7.70;7.10;;;;;;5038372;28;20475;-77
2022/02/04 08:04:13;;;;;;;5.27;3.50;;;7.70;17.90;;;;;;5042546;28;20927;-78
2022/02/04 08:06:45;;;;;;;5.03;3.40;;;7.60;99.90;;;;;;5040199;28;20451;-78
2022/02/04 08:09:21;;;;;;;5.80;4.20;;;7.60;99.90;;;;;;5041204;28;20477;-78
2022/02/04 08:12:10;;;;;;;4.17;3.30;;;7.60;99.90;;;;;;5045323;28;21164;-78
2022/02/04 08:14:57;;;;;;;5.00;3.50;;;7.50;1.00;;;;;;5041378;28;20456;-78
2022/02/04 08:17:46;;;;;;;5.63;3.57;;;7.70;99.90;;;;;;5043949;28;20472;-77
2022/02/04 08:48:25;;;;;;;4.53;3.57;;;8.80;99.90;;;;;;5101487;28;20485;-78
2022/02/04 08:51:18;;;;;;;3.83;3.40;;;8.50;99.90;;;;;;5103644;28;20678;-77
2022/02/04 08:56:39;;;;;;;3.97;2.40;;;8.70;99.90;;;;;;5098867;28;20460;-78
2022/02/04 08:59:15;;;;;;;3.33;3.13;;;8.70;1.00;;;;;;5094994;28;20481;-79
2022/02/04 09:01:52;;;;;;;5.50;3.20;;;8.70;14.10;;;;;;5096788;28;20462;-77
2022/02/04 09:04:29;;;;;;;3.70;2.90;;;8.80;10.40;;;;;;5098337;28;21304;-78
2022/02/04 09:07:04;;;;;;;3.40;2.37;;;8.80;1.00;;;;;;5094594;28;20451;-78
2022/02/04 09:09:48;;;;;;;3.73;2.57;;;9.00;1.00;;;;;;5098494;27;20481;-77
2022/02/04 09:23:44;;;;;;;3.07;2.63;;;9.00;1.00;;;;;;5095562;28;20451;-78
2022/02/04 09:26:12;;;;;;;4.47;3.33;;;9.00;1.00;;;;;;5097354;28;20491;-77
2022/02/04 09:28:40;;;;;;;4.90;2.90;;;8.90;1.00;;;;;;5098027;28;20481;-78
2022/02/04 09:31:10;;;;;;;3.97;2.93;;;9.10;1.00;;;;;;5090465;28;20833;-79
2022/02/04 09:33:38;;;;;;;3.50;3.20;;;9.20;1.00;;;;;;5096270;28;20977;-79
2022/02/04 09:36:07;;;;;;;3.87;3.33;;;9.40;1.00;;;;;;5089714;28;20484;-79
2022/02/04 09:38:35;;;;;;;3.20;2.58;;;9.10;1.00;;;;;;5085591;28;20447;-78
2022/02/04 09:41:03;;;;;;;3.90;2.73;;;9.40;1.00;;;;;;5079570;28;20279;-78
2022/02/04 09:43:32;;;;;;;2.90;2.50;;;9.20;1.00;;;;;;5080660;28;21020;-78
2022/02/04 09:46:01;;;;;;;3.20;2.30;;;9.30;1.00;;;;;;5087945;28;20547;-78
2022/02/04 09:48:31;;;;;;;2.53;2.17;;;9.10;1.00;;;;;;5084163;28;20824;-78
2022/02/04 09:51:00;;;;;;;2.80;1.50;;;8.80;1.00;;;;;;5081708;28;20466;-80
2022/02/04 10:07:57;;;;;;;2.10;1.80;;;9.10;1.00;;;;;;5083349;28;20464;-78
2022/02/04 10:10:52;;;;;;;2.17;1.43;;;9.10;1.00;;;;;;5083614;28;20449;-78
2022/02/04 10:19:04;;;;;;;1.80;1.33;;;8.90;1.00;;;;;;5076615;28;20998;-77
2022/02/04 10:21:33;;;;;;;1.10;1.00;;;9.10;1.00;;;;;;5083917;28;20458;-78
2022/02/04 10:24:02;;;;;;;0.80;0.80;;;9.20;1.00;;;;;;5084760;28;21003;-78
2022/02/04 10:26:30;;;;;;;3.63;0.80;;;9.00;1.00;;;;;;5084833;28;20486;-78
2022/02/04 10:28:58;;;;;;;1.30;1.20;;;8.90;1.00;;;;;;5081445;28;20506;-77
2022/02/04 10:31:28;;;;;;;1.10;1.00;;;9.10;1.00;;;;;;5081701;28;20569;-78
2022/02/04 10:34:00;;;;;;;1.33;1.20;;;9.20;1.00;;;;;;5082876;28;20526;-78
2022/02/04 10:36:50;;;;;;;2.30;1.73;;;9.20;1.00;;;;;;5084699;28;20447;-78
2022/02/04 10:39:40;;;;;;;2.37;1.30;;;8.40;1.00;;;;;;5082264;28;21189;-77
2022/02/04 10:42:22;;;;;;;1.97;1.40;;;8.50;1.00;;;;;;5080863;28;20441;-78
2022/02/04 10:45:03;;;;;;;2.20;1.47;;;8.80;1.00;;;;;;5076076;28;20573;-78
2022/02/04 10:47:46;;;;;;;1.87;1.70;;;9.10;1.00;;;;;;5077340;28;20486;-78
2022/02/04 10:50:45;;;;;;;1.20;1.10;;;9.20;1.00;;;;;;5077436;28;20462;-78
2022/02/04 10:53:41;;;;;;;1.47;1.30;;;9.40;1.00;;;;;;5080936;28;20460;-77
2022/02/04 10:56:39;;;;;;;1.53;1.00;;;9.10;99.90;;;;;;5078301;28;20452;-77
2022/02/04 10:59:29;;;;;;;1.17;1.07;;;9.20;99.90;;;;;;5076796;28;20477;-78
2022/02/04 11:05:06;;;;;;;0.90;0.90;;;9.00;99.90;;;;;;5077094;27;20468;-78
2022/02/04 11:10:45;;;;;;;1.63;1.10;;;8.90;99.90;;;;;;5077745;28;20461;-76
2022/02/04 11:36:47;;;;;;;2.00;0.80;;;9.10;99.90;;;;;;5077191;28;20458;-76
2022/02/04 11:49:20;;;;;;;1.70;1.60;;;9.00;1.00;;;;;;5076135;28;20463;-78
2022/02/04 11:54:44;;;;;;;0.70;0.70;;;8.90;1.00;;;;;;5080267;28;20977;-78
2022/02/04 11:57:20;;;;;;;1.00;0.90;;;9.10;1.00;;;;;;5078770;28;20447;-78
2022/02/04 11:59:56;;;;;;;1.10;0.90;;;9.20;1.00;;;;;;5076333;28;20485;-78
2022/02/04 12:02:50;;;;;;;3.23;0.80;;;9.20;99.90;;;;;;5077331;28;20455;-79
2022/02/04 12:05:33;;;;;;;1.17;0.80;;;9.30;99.90;;;;;;5076230;28;20500;-79
2022/02/04 12:08:19;;;;;;;0.60;0.60;;;9.20;99.90;;;;;;5072928;28;20556;-78
2022/02/04 12:10:55;;;;;;;0.80;0.80;;;8.80;99.90;;;;;;5079543;28;20515;-79
2022/02/04 12:13:25;;;;;;;0.70;0.70;;;8.60;99.90;;;;;;5081199;28;20443;-78
2022/02/04 12:16:07;;;;;;;0.97;0.87;;;8.80;99.90;;;;;;5076530;28;20452;-79
2022/02/04 12:19:08;;;;;;;0.80;0.80;;;9.00;99.90;;;;;;5080923;28;21194;-78
2022/02/04 12:21:50;;;;;;;2.10;1.23;;;9.20;99.90;;;;;;5077747;28;20469;-78
2022/02/04 12:24:46;;;;;;;0.83;0.83;;;8.90;99.90;;;;;;5075938;28;20476;-79
2022/02/04 12:27:34;;;;;;;1.73;1.00;;;9.00;99.90;;;;;;5076575;28;20487;-78
2022/02/04 12:30:45;;;;;;;1.57;0.80;;;8.90;99.90;;;;;;5082041;28;20456;-78
2022/02/04 12:33:18;;;;;;;0.90;0.70;;;8.80;99.90;;;;;;5079792;28;20471;-77
2022/02/04 12:35:46;;;;;;;2.87;1.00;;;8.80;99.90;;;;;;5081501;28;20457;-79
2022/02/04 12:38:14;;;;;;;0.87;0.80;;;8.90;99.90;;;;;;5073306;28;20581;-79
2022/02/04 12:40:42;;;;;;;1.33;0.97;;;8.80;99.90;;;;;;5076905;28;20467;-78
2022/02/04 12:43:11;;;;;;;2.20;1.23;;;8.80;99.90;;;;;;5078870;28;20438;-78
2022/02/04 12:45:45;;;;;;;1.23;1.10;;;8.70;99.90;;;;;;5073365;28;21015;-79
2022/02/04 12:48:15;;;;;;;0.70;0.70;;;8.90;99.90;;;;;;5084908;28;20471;-78
2022/02/04 12:50:44;;;;;;;0.80;0.80;;;8.70;99.90;;;;;;5085851;28;20542;-79
2022/02/04 12:53:23;;;;;;;1.40;0.93;;;8.70;99.90;;;;;;5090944;28;20462;-78
2022/02/04 12:56:04;;;;;;;2.57;0.80;;;8.70;99.90;;;;;;5075735;28;20514;-78
2022/02/04 12:59:07;;;;;;;0.73;0.73;;;8.60;99.90;;;;;;5085906;28;20467;-78
2022/02/04 13:10:18;;;;;;;0.90;0.70;;;8.50;99.90;;;;;;5022731;28;20474;-77
2022/02/04 13:12:52;;;;;;;0.80;0.70;;;8.50;99.90;;;;;;5026059;28;20453;-78
2022/02/04 13:15:21;;;;;;;1.50;1.40;;;8.60;99.90;;;;;;5052575;28;20994;-77
2022/02/04 13:17:50;;;;;;;1.00;0.80;;;8.60;99.90;;;;;;5077325;28;20789;-77
2022/02/04 13:20:22;;;;;;;1.00;0.90;;;8.70;99.90;;;;;;5084179;28;20481;-77
2022/02/04 13:22:52;;;;;;;1.53;0.80;;;8.80;99.90;;;;;;5079891;28;20460;-77
2022/02/04 13:25:23;;;;;;;1.70;0.80;;;9.00;99.90;;;;;;5084576;28;20482;-78
2022/02/04 13:28:05;;;;;;;0.80;0.80;;;8.80;99.90;;;;;;5087217;28;20839;-77
2022/02/04 13:30:35;;;;;;;2.10;0.90;;;8.80;99.90;;;;;;5084931;28;20446;-77
2022/02/04 13:33:14;;;;;;;2.10;0.93;;;8.60;99.90;;;;;;5080777;28;20463;-78
2022/02/04 13:35:52;;;;;;;0.70;0.70;;;8.40;99.90;;;;;;5088285;28;20832;-77
2022/02/04 13:38:28;;;;;;;1.00;0.87;;;8.40;99.90;;;;;;5086454;28;20475;-76
2022/02/04 13:43:59;;;;;;;0.83;0.70;;;8.80;99.90;;;;;;5088151;28;20467;-78
2022/02/04 13:46:43;;;;;;;0.93;0.90;;;8.90;99.90;;;;;;5079850;28;20487;-77
2022/02/04 13:49:28;;;;;;;0.60;0.60;;;8.80;99.90;;;;;;5084668;28;20534;-78
2022/02/04 13:52:07;;;;;;;0.97;0.80;;;8.80;99.90;;;;;;5085188;28;20452;-78
2022/02/04 13:54:53;;;;;;;3.20;0.90;;;8.60;99.90;;;;;;5087066;28;20451;-78
2022/02/04 13:57:30;;;;;;;0.70;0.70;;;8.50;99.90;;;;;;5082830;28;20471;-75
2022/02/04 14:00:17;;;;;;;0.93;0.90;;;8.30;99.90;;;;;;5083900;28;20448;-78
2022/02/04 14:02:49;;;;;;;1.10;0.80;;;8.50;99.90;;;;;;5080951;28;20547;-78
2022/02/04 14:05:25;;;;;;;0.80;0.70;;;8.60;99.90;;;;;;5082570;28;20532;-78
2022/02/04 14:08:05;;;;;;;1.03;1.03;;;8.50;99.90;;;;;;5082525;28;20486;-78
2022/02/04 14:10:34;;;;;;;0.80;0.80;;;8.60;99.90;;;;;;5085223;28;20475;-77
2022/02/04 14:13:06;;;;;;;0.60;0.60;;;8.50;99.90;;;;;;5082288;28;20451;-77
2022/02/04 14:15:36;;;;;;;0.70;0.70;;;8.40;99.90;;;;;;5086531;28;20476;-78
2022/02/04 14:18:09;;;;;;;1.83;0.60;;;8.30;99.90;;;;;;5080175;28;20526;-77
2022/02/04 14:20:39;;;;;;;1.70;1.07;;;8.30;99.90;;;;;;5083763;28;20514;-79
2022/02/04 14:23:09;;;;;;;0.73;0.60;;;8.30;99.90;;;;;;5084032;28;20511;-78
2022/02/04 14:25:48;;;;;;;0.80;0.70;;;8.50;99.90;;;;;;5097282;28;21047;-77
2022/02/04 14:28:27;;;;;;;0.57;0.57;;;8.60;99.90;;;;;;5084629;28;20484;-77
2022/02/04 14:31:02;;;;;;;0.60;0.60;;;8.70;99.90;;;;;;5083409;28;20472;-78
2022/02/04 14:36:19;;;;;;;0.50;0.50;;;8.50;99.90;;;;;;5048332;28;21005;-80
2022/02/04 14:50:32;;;;;;;0.70;0.70;;;8.90;99.90;;;;;;5098483;28;20521;-79
2022/02/04 14:53:21;;;;;;;0.70;0.60;;;9.00;99.90;;;;;;5082772;28;20448;-79
2022/02/04 15:01:23;;;;;;;0.50;0.50;;;9.00;99.90;;;;;;5082851;28;20702;-79
2022/02/04 15:04:01;;;;;;;2.40;0.60;;;8.80;99.90;;;;;;5083329;28;20480;-78
2022/02/04 15:06:32;;;;;;;0.50;0.50;;;8.80;99.90;;;;;;5084227;28;20449;-79
2022/02/04 15:09:07;;;;;;;0.40;0.40;;;8.90;99.90;;;;;;5083205;28;20489;-79
2022/02/04 15:11:39;;;;;;;1.57;1.47;;;8.90;99.90;;;;;;5083890;28;21415;-79
2022/02/04 15:14:11;;;;;;;0.70;0.60;;;8.80;99.90;;;;;;5082967;28;20510;-78
2022/02/04 15:16:42;;;;;;;0.57;0.50;;;8.90;99.90;;;;;;5084494;28;20460;-78
2022/02/04 15:19:11;;;;;;;0.50;0.50;;;8.50;99.90;;;;;;5080977;28;20464;-77
2022/02/04 15:21:44;;;;;;;0.50;0.50;;;8.50;99.90;;;;;;5084689;28;20467;-79
2022/02/04 15:24:12;;;;;;;0.50;0.50;;;8.40;99.90;;;;;;5081519;28;20468;-78
2022/02/04 15:26:42;;;;;;;0.40;0.40;;;8.30;99.90;;;;;;5081905;28;20496;-78
2022/02/04 15:29:13;;;;;;;0.60;0.50;;;8.10;99.90;;;;;;5083357;28;20468;-79
2022/02/04 15:31:44;;;;;;;0.50;0.50;;;8.10;99.90;;;;;;5084999;28;20463;-79
2022/02/04 15:34:15;;;;;;;0.60;0.60;;;8.10;99.90;;;;;;5081103;28;20454;-77
2022/02/04 15:36:48;;;;;;;0.90;0.70;;;8.00;99.90;;;;;;5079081;28;20472;-79
2022/02/04 15:39:18;;;;;;;0.40;0.40;;;8.10;99.90;;;;;;5078745;28;20486;-79
2022/02/04 15:41:51;;;;;;;0.60;0.60;;;8.20;99.90;;;;;;5078948;28;20470;-78
2022/02/04 15:44:25;;;;;;;1.77;0.50;;;8.30;99.90;;;;;;5080970;28;20463;-78
2022/02/04 15:47:17;;;;;;;0.60;0.60;;;8.20;99.90;;;;;;5082524;28;20828;-78
2022/02/04 15:50:06;;;;;;;0.50;0.50;;;8.10;99.90;;;;;;5079948;28;21197;-79
2022/02/04 15:52:53;;;;;;;1.92;1.10;;;8.30;99.90;;;;;;5078435;28;20455;-79
2022/02/04 15:58:31;;;;;;;0.53;0.50;;;8.50;99.90;;;;;;5074771;28;20475;-78
2022/02/04 16:03:59;;;;;;;0.67;0.60;;;8.40;99.90;;;;;;5074642;28;20459;-79
2022/02/04 16:06:30;;;;;;;0.60;0.60;;;8.60;99.90;;;;;;5082407;28;21037;-78
2022/02/04 16:08:58;;;;;;;0.60;0.53;;;8.50;99.90;;;;;;5083823;28;20486;-79
2022/02/04 16:11:46;;;;;;;0.70;0.60;;;8.60;99.90;;;;;;5086865;28;20458;-79
2022/02/04 16:14:20;;;;;;;0.50;0.50;;;8.10;99.90;;;;;;5087567;28;20453;-78
2022/02/04 16:16:53;;;;;;;0.50;0.50;;;8.00;99.90;;;;;;5087034;28;20464;-78
2022/02/04 16:19:29;;;;;;;0.60;0.60;;;8.20;99.90;;;;;;5085854;28;20468;-79
2022/02/04 16:22:26;;;;;;;0.57;0.50;;;8.10;99.90;;;;;;5086848;28;20462;-78
2022/02/04 16:30:27;;;;;;;0.60;0.60;;;8.00;99.90;;;;;;5081715;28;21064;-76
2022/02/04 16:32:55;;;;;;;0.50;0.50;;;8.10;99.90;;;;;;5081662;28;20293;-78
2022/02/04 16:35:24;;;;;;;1.37;0.50;;;8.10;99.90;;;;;;5083495;28;20444;-78
2022/02/04 16:38:03;;;;;;;0.80;0.60;;;7.90;99.90;;;;;;5086399;28;20470;-78
2022/02/04 16:40:32;;;;;;;0.40;0.40;;;8.00;99.90;;;;;;5083952;28;20535;-77
2022/02/04 16:43:01;;;;;;;0.80;0.70;;;8.20;99.90;;;;;;5082446;28;20971;-79
2022/02/04 16:45:31;;;;;;;2.27;0.53;;;8.30;99.90;;;;;;5081977;28;20443;-77
2022/02/04 16:47:59;;;;;;;0.60;0.60;;;8.40;99.90;;;;;;5086943;28;20498;-80
2022/02/04 16:50:27;;;;;;;1.60;0.70;;;8.10;99.90;;;;;;5085287;28;20459;-78
2022/02/04 16:52:56;;;;;;;0.70;0.50;;;8.10;99.90;;;;;;5087201;28;20482;-78
2022/02/04 16:55:24;;;;;;;0.50;0.50;;;8.10;99.90;;;;;;5085052;28;20451;-79
2022/02/04 16:57:54;;;;;;;0.67;0.60;;;8.20;99.90;;;;;;5085318;28;20488;-77
2022/02/04 17:00:24;;;;;;;0.60;0.60;;;8.00;99.90;;;;;;5089992;28;20440;-78
2022/02/04 17:03:02;;;;;;;0.57;0.57;;;8.00;99.90;;;;;;5089418;28;20494;-78
2022/02/04 17:05:39;;;;;;;0.60;0.60;;;7.90;99.90;;;;;;5080971;28;20448;-79
2022/02/04 17:08:10;;;;;;;3.50;0.80;;;8.00;99.90;;;;;;5081004;28;20484;-78
2022/02/04 17:10:43;;;;;;;0.50;0.50;;;8.30;99.90;;;;;;5082773;28;20438;-79
2022/02/04 17:13:12;;;;;;;0.60;0.60;;;8.20;99.90;;;;;;5083239;28;20453;-78
2022/02/04 17:15:41;;;;;;;0.50;0.50;;;8.10;99.90;;;;;;5084999;28;20450;-77
2022/02/04 17:18:11;;;;;;;0.60;0.60;;;8.00;99.90;;;;;;5078648;28;20470;-79
2022/02/04 17:20:41;;;;;;;0.60;0.60;;;7.80;99.90;;;;;;5082738;28;20448;-79
2022/02/04 17:23:12;;;;;;;0.83;0.83;;;7.70;99.90;;;;;;5079409;28;20209;-78
2022/02/04 17:25:43;;;;;;;0.50;0.40;;;7.90;99.90;;;;;;5084172;28;20466;-78
2022/02/04 17:28:11;;;;;;;0.70;0.70;;;8.00;99.90;;;;;;5080281;28;20495;-78
2022/02/04 17:30:39;;;;;;;0.50;0.50;;;7.90;99.90;;;;;;5080834;28;20448;-77
2022/02/04 17:33:08;;;;;;;0.50;0.50;;;8.00;99.90;;;;;;5083451;28;20434;-78
2022/02/04 17:35:37;;;;;;;1.50;0.60;;;7.70;99.90;;;;;;5085045;28;20481;-78
2022/02/04 17:38:06;;;;;;;0.60;0.60;;;7.80;99.90;;;;;;5078671;28;20486;-78
2022/02/04 17:40:34;;;;;;;0.67;0.67;;;7.80;99.90;;;;;;5080165;28;20469;-79
2022/02/04 17:43:03;;;;;;;0.80;0.60;;;7.90;99.90;;;;;;5082158;28;20466;-77
2022/02/04 17:45:31;;;;;;;0.67;0.67;;;7.80;99.90;;;;;;5081956;28;20466;-79
2022/02/04 17:48:05;;;;;;;0.47;0.47;;;7.90;99.90;;;;;;5078110;28;20562;-79
2022/02/04 17:50:40;;;;;;;0.70;0.60;;;7.60;99.90;;;;;;5082241;28;20479;-78
2022/02/04 17:53:16;;;;;;;0.70;0.70;;;7.90;99.90;;;;;;5083527;28;20457;-78
2022/02/04 17:55:48;;;;;;;0.60;0.60;;;8.10;99.90;;;;;;5075180;28;20570;-78
2022/02/04 17:58:26;;;;;;;0.60;0.60;;;8.30;99.90;;;;;;5080016;28;20482;-78
2022/02/04 18:06:53;;;;;;;0.50;0.50;;;8.00;99.90;;;;;;5081170;28;20455;-78
2022/02/04 18:09:17;;;;;;;0.60;0.60;;;7.80;99.90;;;;;;5078781;28;20518;-78
2022/02/04 18:11:45;;;;;;;0.70;0.70;;;8.00;99.90;;;;;;5080970;28;20460;-79
2022/02/04 18:14:14;;;;;;;4.10;0.60;;;8.20;99.90;;;;;;5080812;28;20237;-76
2022/02/04 18:16:44;;;;;;;0.80;0.60;;;8.30;99.90;;;;;;5085003;28;21333;-78
2022/02/04 18:19:13;;;;;;;0.60;0.60;;;8.30;99.90;;;;;;5082024;28;21006;-80
2022/02/04 18:21:41;;;;;;;0.50;0.50;;;8.40;99.90;;;;;;5081276;28;20543;-80
2022/02/04 18:24:12;;;;;;;0.82;0.70;;;8.60;99.90;;;;;;5077160;28;20531;-79
2022/02/04 18:26:42;;;;;;;0.60;0.60;;;8.50;99.90;;;;;;5080464;28;20207;-78
2022/02/04 18:29:10;;;;;;;1.73;0.70;;;8.30;99.90;;;;;;5082526;28;20496;-78
2022/02/04 18:31:38;;;;;;;0.50;0.50;;;8.30;99.90;;;;;;5087820;28;20451;-80